Time;durP1;ratioP1;P1;durP2;ratioP2;P2;SDS_P1;SDS_P2;PMS_P1;PMS_P2;Temp;Humidity;BMP_temperature;BMP_pressure;BME280_temperature;BME280_humidity;BME280_pressure;Samples;Min_cycle;Max_cycle;Signal;HPM_P1;HPM_P2
2023/12/19 00:00:10;;;;;;;18.55;16.85;;;3.50;99.90;;;;;;4868124;29;20193;-52
2023/12/19 00:02:35;;;;;;;18.30;16.63;;;3.50;99.90;;;;;;4867979;29;20219;-49
2023/12/19 00:05:01;;;;;;;18.50;16.80;;;3.50;99.90;;;;;;4869868;29;20191;-54
2023/12/19 00:07:29;;;;;;;18.23;16.70;;;3.60;99.90;;;;;;4867009;29;20285;-50
2023/12/19 00:09:55;;;;;;;19.40;17.60;;;3.70;99.90;;;;;;4868685;29;20278;-50
2023/12/19 00:12:21;;;;;;;17.83;16.27;;;3.70;99.90;;;;;;4867547;29;20655;-54
2023/12/19 00:14:46;;;;;;;18.63;17.13;;;3.80;99.90;;;;;;4867975;29;20874;-50
2023/12/19 00:17:12;;;;;;;18.33;16.73;;;3.80;99.90;;;;;;4866981;29;20199;-52
2023/12/19 00:19:37;;;;;;;20.37;18.57;;;3.80;99.90;;;;;;4866754;29;20184;-54
2023/12/19 00:22:03;;;;;;;17.67;16.17;;;3.90;99.90;;;;;;4867886;29;20198;-52
2023/12/19 00:24:29;;;;;;;19.70;17.90;;;3.90;99.90;;;;;;4867529;29;20196;-51
2023/12/19 00:26:54;;;;;;;19.30;17.30;;;4.00;99.90;;;;;;4868324;29;20191;-52
2023/12/19 00:29:20;;;;;;;19.10;17.37;;;4.00;99.90;;;;;;4867063;29;20191;-54
2023/12/19 00:31:46;;;;;;;17.40;16.00;;;4.00;99.90;;;;;;4867729;29;20678;-54
2023/12/19 00:34:12;;;;;;;18.90;17.30;;;4.00;99.90;;;;;;4867546;29;20212;-53
2023/12/19 00:36:37;;;;;;;18.67;16.95;;;4.00;99.90;;;;;;4868253;29;21324;-54
2023/12/19 00:39:04;;;;;;;19.30;17.40;;;4.10;99.90;;;;;;4867173;29;20200;-50
2023/12/19 00:41:30;;;;;;;18.60;16.95;;;4.20;99.90;;;;;;4867459;29;20195;-51
2023/12/19 00:43:55;;;;;;;18.60;17.13;;;4.10;99.90;;;;;;4867078;29;20247;-54
2023/12/19 00:46:21;;;;;;;18.83;17.23;;;4.20;99.90;;;;;;4866942;29;20194;-51
2023/12/19 00:48:47;;;;;;;19.53;17.73;;;4.20;99.90;;;;;;4879214;29;20184;-54
2023/12/19 00:51:12;;;;;;;18.03;16.43;;;4.20;99.90;;;;;;4867425;29;20188;-54
2023/12/19 00:53:38;;;;;;;18.50;16.73;;;4.20;99.90;;;;;;4866224;29;20276;-53
2023/12/19 00:56:11;;;;;;;18.63;16.83;;;4.30;99.90;;;;;;4867244;29;20200;-53
2023/12/19 00:58:38;;;;;;;19.27;17.55;;;4.30;99.90;;;;;;4867130;29;20823;-53
2023/12/19 01:01:05;;;;;;;17.13;15.63;;;4.40;99.90;;;;;;4866480;29;20234;-48
2023/12/19 01:03:31;;;;;;;18.80;16.25;;;4.40;99.90;;;;;;4866327;29;20271;-55
2023/12/19 01:05:58;;;;;;;18.02;16.48;;;4.40;99.90;;;;;;4866907;29;20196;-54
2023/12/19 01:08:24;;;;;;;18.60;17.20;;;4.30;99.90;;;;;;4866098;29;20293;-53
2023/12/19 01:10:49;;;;;;;17.10;15.70;;;4.30;99.90;;;;;;4867216;29;20187;-52
2023/12/19 01:13:15;;;;;;;17.80;16.33;;;4.40;99.90;;;;;;4866675;29;20730;-54
2023/12/19 01:15:41;;;;;;;17.50;16.10;;;4.40;99.90;;;;;;4867253;29;20914;-54
2023/12/19 01:18:06;;;;;;;17.23;15.80;;;4.50;99.90;;;;;;4866940;29;20184;-52
2023/12/19 01:20:32;;;;;;;17.60;16.20;;;4.50;99.90;;;;;;4866983;29;20526;-51
2023/12/19 01:22:57;;;;;;;17.27;15.70;;;4.50;99.90;;;;;;4865739;29;20212;-55
2023/12/19 01:25:23;;;;;;;16.77;15.27;;;4.60;99.90;;;;;;4867730;29;20248;-54
2023/12/19 01:27:48;;;;;;;16.90;15.60;;;4.60;99.90;;;;;;4866538;29;20244;-53
2023/12/19 01:30:14;;;;;;;17.13;15.73;;;4.60;99.90;;;;;;4867102;29;20192;-53
2023/12/19 01:32:41;;;;;;;17.70;16.23;;;4.60;99.90;;;;;;4866774;29;20188;-54
2023/12/19 01:35:07;;;;;;;18.20;16.58;;;4.70;99.90;;;;;;4866932;29;20220;-52
2023/12/19 01:37:32;;;;;;;16.80;15.50;;;4.70;99.90;;;;;;4866482;29;20203;-52
2023/12/19 01:39:58;;;;;;;17.30;15.80;;;4.70;99.90;;;;;;4866554;29;20196;-52
2023/12/19 01:42:24;;;;;;;17.57;16.17;;;4.70;99.90;;;;;;4866430;29;20844;-52
2023/12/19 01:45:15;;;;;;;17.03;15.73;;;4.70;99.90;;;;;;4866867;29;20689;-43
2023/12/19 01:47:43;;;;;;;18.52;17.10;;;4.70;99.90;;;;;;4865415;29;20440;-42
2023/12/19 01:50:12;;;;;;;17.30;15.70;;;4.70;99.90;;;;;;4860024;29;20222;-43
2023/12/19 01:52:43;;;;;;;17.58;16.13;;;4.70;99.90;;;;;;4866275;29;20279;-41
2023/12/19 01:55:10;;;;;;;18.25;16.83;;;4.70;99.90;;;;;;4866667;29;20212;-42
2023/12/19 01:57:36;;;;;;;17.15;15.75;;;4.70;99.90;;;;;;4865389;29;20187;-42
2023/12/19 02:00:03;;;;;;;17.10;15.82;;;4.60;99.90;;;;;;4865543;29;20188;-43
2023/12/19 02:02:29;;;;;;;17.08;15.73;;;4.50;99.90;;;;;;4866107;29;20232;-46
2023/12/19 02:04:57;;;;;;;16.10;14.80;;;4.50;99.90;;;;;;4867860;29;20211;-43
2023/12/19 02:07:23;;;;;;;17.92;16.27;;;4.40;99.90;;;;;;4869830;29;20202;-45
2023/12/19 02:09:49;;;;;;;17.20;15.90;;;4.30;99.90;;;;;;4869283;29;20191;-43
2023/12/19 02:12:15;;;;;;;18.57;16.57;;;4.20;99.90;;;;;;4870439;29;21009;-43
2023/12/19 02:14:43;;;;;;;17.43;16.03;;;4.20;1.00;;;;;;4869739;29;20575;-46
2023/12/19 02:17:11;;;;;;;16.90;15.50;;;4.10;99.90;;;;;;4870454;29;20266;-43
2023/12/19 02:19:47;;;;;;;16.80;15.40;;;4.00;1.00;;;;;;4869946;29;20184;-45
2023/12/19 02:22:13;;;;;;;17.35;15.85;;;4.00;1.00;;;;;;4868721;29;20183;-43
2023/12/19 02:24:39;;;;;;;17.70;16.20;;;3.90;1.00;;;;;;4869992;29;20202;-44
2023/12/19 02:27:06;;;;;;;17.23;15.73;;;3.80;96.30;;;;;;4869615;29;20203;-52
2023/12/19 02:29:31;;;;;;;18.30;16.63;;;3.80;1.00;;;;;;4865517;29;20203;-53
2023/12/19 02:31:58;;;;;;;17.80;16.10;;;3.70;1.00;;;;;;4868433;29;20196;-54
2023/12/19 02:34:23;;;;;;;17.92;16.40;;;3.60;99.90;;;;;;4869966;29;20203;-53
2023/12/19 02:36:49;;;;;;;17.20;15.80;;;3.50;1.00;;;;;;4875246;29;20210;-48
2023/12/19 02:39:15;;;;;;;17.20;15.90;;;3.40;99.90;;;;;;4869106;29;20206;-54
2023/12/19 02:41:40;;;;;;;17.03;15.70;;;3.40;99.90;;;;;;4869057;29;20188;-50
2023/12/19 02:44:06;;;;;;;17.20;15.90;;;3.30;99.90;;;;;;4869809;29;20261;-54
2023/12/19 02:46:34;;;;;;;17.30;15.90;;;3.30;99.90;;;;;;4868996;29;20272;-54
2023/12/19 02:49:00;;;;;;;17.45;15.90;;;3.30;1.00;;;;;;4869582;29;20550;-54
2023/12/19 02:51:26;;;;;;;17.25;15.60;;;3.30;1.00;;;;;;4869206;29;20533;-51
2023/12/19 02:53:54;;;;;;;17.80;16.30;;;3.20;1.00;;;;;;4868767;29;20216;-55
2023/12/19 02:56:20;;;;;;;17.45;15.95;;;3.10;1.00;;;;;;4869641;29;20200;-54
2023/12/19 02:58:45;;;;;;;18.43;16.83;;;3.20;99.90;;;;;;4869103;29;20608;-52
2023/12/19 03:01:11;;;;;;;17.20;15.90;;;3.10;99.90;;;;;;4868536;29;20433;-55
2023/12/19 03:03:43;;;;;;;18.10;16.40;;;3.10;99.90;;;;;;4869314;29;20199;-52
2023/12/19 03:06:09;;;;;;;16.45;15.13;;;3.00;99.90;;;;;;4869072;29;20514;-55
2023/12/19 03:08:35;;;;;;;17.57;16.27;;;3.00;99.90;;;;;;4869588;29;20281;-51
2023/12/19 03:11:01;;;;;;;18.35;16.92;;;3.00;99.90;;;;;;4868970;29;20439;-53
2023/12/19 03:13:26;;;;;;;17.97;16.47;;;3.00;99.90;;;;;;4868945;29;20223;-55
2023/12/19 03:15:52;;;;;;;17.60;16.30;;;2.90;99.90;;;;;;4869108;29;20440;-52
2023/12/19 03:18:23;;;;;;;18.23;16.73;;;2.90;99.90;;;;;;4883095;29;20203;-53
2023/12/19 03:20:49;;;;;;;17.30;15.63;;;2.90;99.90;;;;;;4868823;29;20583;-53
2023/12/19 03:23:15;;;;;;;16.88;15.57;;;2.90;99.90;;;;;;4868384;29;20190;-52
2023/12/19 03:25:41;;;;;;;17.33;15.93;;;3.00;99.90;;;;;;4867462;29;20202;-52
2023/12/19 03:28:07;;;;;;;18.10;16.50;;;3.00;99.90;;;;;;4869062;29;20189;-50
2023/12/19 03:30:32;;;;;;;17.40;15.77;;;2.90;99.90;;;;;;4865667;29;20456;-53
2023/12/19 03:32:58;;;;;;;16.07;14.77;;;3.00;99.90;;;;;;4868102;29;20298;-53
2023/12/19 03:35:23;;;;;;;18.07;16.37;;;3.00;99.90;;;;;;4868534;29;20218;-53
2023/12/19 03:37:50;;;;;;;16.77;15.37;;;3.00;99.90;;;;;;4867500;29;20186;-51
2023/12/19 03:40:16;;;;;;;17.65;16.15;;;3.00;99.90;;;;;;4868396;29;20194;-55
2023/12/19 03:42:42;;;;;;;18.47;16.80;;;3.00;99.90;;;;;;4868539;29;20649;-54
2023/12/19 03:45:08;;;;;;;16.50;15.10;;;2.90;99.90;;;;;;4868020;29;20210;-54
2023/12/19 03:47:36;;;;;;;17.08;15.68;;;2.90;99.90;;;;;;4868754;29;20479;-52
2023/12/19 03:50:01;;;;;;;17.17;15.88;;;2.90;99.90;;;;;;4867546;29;20286;-55
2023/12/19 03:52:27;;;;;;;16.27;14.87;;;2.90;1.00;;;;;;4868255;29;20651;-51
2023/12/19 03:54:53;;;;;;;17.50;16.00;;;2.90;99.90;;;;;;4868842;29;20222;-51
2023/12/19 03:57:18;;;;;;;16.63;15.23;;;2.80;99.90;;;;;;4868636;29;20201;-55
2023/12/19 03:59:44;;;;;;;16.23;14.73;;;2.80;99.90;;;;;;4867401;29;20191;-52
2023/12/19 04:02:10;;;;;;;17.27;15.70;;;2.80;1.00;;;;;;4868257;29;20199;-55
2023/12/19 04:04:36;;;;;;;17.73;16.00;;;2.80;1.00;;;;;;4868402;29;20202;-52
2023/12/19 04:07:01;;;;;;;17.20;15.80;;;2.80;1.00;;;;;;4867845;29;20195;-54
2023/12/19 04:09:27;;;;;;;16.73;14.83;;;2.80;1.00;;;;;;4868086;29;20199;-53
2023/12/19 04:11:53;;;;;;;18.30;16.60;;;2.70;1.00;;;;;;4868208;29;20191;-54
2023/12/19 04:14:19;;;;;;;18.38;16.70;;;2.70;1.00;;;;;;4867939;29;20212;-53
2023/12/19 04:16:45;;;;;;;17.20;15.83;;;2.60;1.00;;;;;;4867871;29;20655;-52
2023/12/19 04:19:10;;;;;;;17.77;16.17;;;2.60;1.00;;;;;;4867587;29;20186;-53
2023/12/19 04:21:36;;;;;;;17.37;15.80;;;2.70;1.00;;;;;;4866213;29;21182;-55
2023/12/19 04:24:04;;;;;;;16.85;15.45;;;2.70;1.00;;;;;;4867165;29;20511;-51
2023/12/19 04:26:29;;;;;;;16.30;14.85;;;2.80;1.00;;;;;;4867320;29;20933;-52
2023/12/19 04:28:55;;;;;;;16.60;15.10;;;2.90;1.00;;;;;;4872040;29;20187;-56
2023/12/19 04:31:20;;;;;;;16.13;14.87;;;3.00;1.00;;;;;;4867428;29;20193;-53
2023/12/19 04:33:46;;;;;;;15.60;13.90;;;3.10;1.00;;;;;;4868207;29;20975;-52
2023/12/19 04:36:12;;;;;;;16.10;14.70;;;3.20;99.90;;;;;;4866801;29;21088;-54
2023/12/19 04:38:39;;;;;;;15.67;14.37;;;3.20;99.90;;;;;;4867076;29;20201;-55
2023/12/19 04:41:05;;;;;;;15.38;14.00;;;3.20;99.90;;;;;;4867307;29;20199;-55
2023/12/19 04:43:31;;;;;;;15.83;14.47;;;3.30;53.00;;;;;;4866266;29;20238;-49
2023/12/19 04:45:57;;;;;;;15.32;14.10;;;3.40;1.00;;;;;;4867482;29;20425;-55
2023/12/19 04:48:23;;;;;;;15.30;14.15;;;3.40;1.00;;;;;;4866537;29;20201;-49
2023/12/19 04:50:48;;;;;;;15.27;14.00;;;3.50;1.00;;;;;;4867687;29;20625;-54
2023/12/19 04:53:14;;;;;;;15.30;14.10;;;3.50;99.90;;;;;;4866878;29;20202;-53
2023/12/19 04:55:39;;;;;;;15.93;14.63;;;3.50;99.90;;;;;;4867276;29;20206;-55
2023/12/19 04:58:05;;;;;;;15.20;13.87;;;3.60;99.90;;;;;;4867684;29;20196;-53
2023/12/19 05:00:31;;;;;;;15.27;14.03;;;3.60;99.90;;;;;;4866382;29;20191;-54
2023/12/19 05:02:56;;;;;;;17.37;16.07;;;3.60;99.90;;;;;;4865586;29;20196;-55
2023/12/19 05:05:22;;;;;;;15.20;13.90;;;3.60;99.90;;;;;;4866274;29;20192;-53
2023/12/19 05:07:48;;;;;;;15.80;14.60;;;3.60;99.90;;;;;;4867295;29;20258;-53
2023/12/19 05:10:14;;;;;;;15.00;13.80;;;3.60;13.40;;;;;;4866903;29;20222;-54
2023/12/19 05:12:39;;;;;;;14.63;13.33;;;3.60;1.00;;;;;;4866933;29;20199;-45
2023/12/19 05:15:05;;;;;;;16.13;14.77;;;3.60;1.00;;;;;;4867103;29;20979;-45
2023/12/19 05:17:31;;;;;;;15.65;14.35;;;3.60;1.00;;;;;;4867750;29;20725;-45
2023/12/19 05:19:57;;;;;;;15.50;14.50;;;3.70;1.00;;;;;;4865518;29;20187;-42
2023/12/19 05:22:23;;;;;;;14.95;13.73;;;3.70;1.00;;;;;;4866502;29;20277;-43
2023/12/19 05:24:51;;;;;;;15.50;14.30;;;3.70;1.00;;;;;;4866328;29;20205;-42
2023/12/19 05:27:17;;;;;;;16.38;14.90;;;3.70;99.90;;;;;;4867523;29;20261;-42
2023/12/19 05:29:43;;;;;;;17.03;15.63;;;3.60;99.90;;;;;;4867076;29;20634;-43
2023/12/19 05:32:10;;;;;;;15.60;14.30;;;3.60;99.90;;;;;;4865907;29;20277;-51
2023/12/19 05:34:35;;;;;;;15.02;13.77;;;3.50;99.90;;;;;;4867683;29;20227;-53
2023/12/19 05:37:01;;;;;;;15.60;14.40;;;3.50;99.90;;;;;;4867489;29;20218;-54
2023/12/19 05:39:27;;;;;;;16.30;14.80;;;3.40;1.00;;;;;;4865235;29;20199;-54
2023/12/19 05:41:56;;;;;;;16.10;14.73;;;3.30;1.00;;;;;;4867447;29;20201;-52
2023/12/19 05:44:25;;;;;;;15.57;14.18;;;3.30;1.00;;;;;;4867206;29;20323;-52
2023/12/19 05:46:51;;;;;;;15.68;14.35;;;3.30;1.00;;;;;;4866357;29;20274;-55
2023/12/19 05:49:18;;;;;;;16.85;15.20;;;3.20;1.00;;;;;;4866898;29;20196;-56
2023/12/19 05:51:43;;;;;;;15.55;14.05;;;3.20;1.00;;;;;;4866940;29;20531;-51
2023/12/19 05:54:10;;;;;;;14.80;13.40;;;3.20;99.90;;;;;;4866851;29;20217;-53
2023/12/19 05:56:35;;;;;;;15.73;14.10;;;3.20;99.90;;;;;;4867239;29;20539;-54
2023/12/19 05:59:01;;;;;;;18.03;16.27;;;3.20;1.00;;;;;;4866996;29;20191;-51
2023/12/19 06:01:27;;;;;;;16.00;14.40;;;3.20;1.00;;;;;;4866447;29;20547;-53
2023/12/19 06:03:54;;;;;;;18.00;14.90;;;3.20;1.00;;;;;;4866973;29;20190;-54
2023/12/19 06:06:19;;;;;;;16.50;15.20;;;3.30;1.00;;;;;;4867192;29;20298;-52
2023/12/19 06:08:45;;;;;;;16.50;15.00;;;3.20;1.00;;;;;;4866743;29;20196;-54
2023/12/19 06:11:11;;;;;;;16.10;14.70;;;3.30;1.00;;;;;;4866076;29;20195;-55
2023/12/19 06:13:37;;;;;;;17.60;16.00;;;3.20;1.00;;;;;;4866036;29;20229;-53
2023/12/19 06:16:03;;;;;;;16.67;15.17;;;3.20;1.00;;;;;;4866320;29;20882;-54
2023/12/19 06:18:29;;;;;;;17.70;15.80;;;3.20;1.00;;;;;;4864093;29;20459;-54
2023/12/19 06:20:55;;;;;;;17.10;15.43;;;3.10;1.00;;;;;;4864014;29;20630;-55
2023/12/19 06:23:20;;;;;;;17.00;15.20;;;3.10;1.00;;;;;;4867171;29;20186;-54
2023/12/19 06:25:46;;;;;;;17.53;15.70;;;3.00;1.00;;;;;;4866806;29;20201;-53
2023/12/19 06:28:14;;;;;;;16.30;14.77;;;3.00;1.00;;;;;;4865874;29;20194;-53
2023/12/19 06:30:40;;;;;;;16.20;14.80;;;3.00;1.00;;;;;;4864938;29;20525;-55
2023/12/19 06:33:06;;;;;;;16.60;15.00;;;3.00;1.00;;;;;;4864848;29;20186;-53
2023/12/19 06:35:32;;;;;;;16.30;14.90;;;3.00;99.90;;;;;;4865689;29;20206;-54
2023/12/19 06:37:57;;;;;;;15.93;14.47;;;2.90;46.50;;;;;;4865472;29;21272;-51
2023/12/19 06:40:23;;;;;;;19.60;17.80;;;2.90;86.30;;;;;;4866694;29;20207;-51
2023/12/19 06:42:50;;;;;;;16.88;15.38;;;2.90;99.90;;;;;;4865994;29;20688;-54
2023/12/19 06:45:16;;;;;;;16.58;15.18;;;2.90;99.90;;;;;;4864777;29;20637;-54
2023/12/19 06:47:41;;;;;;;17.27;15.60;;;2.90;99.90;;;;;;4866455;29;20198;-43
2023/12/19 06:50:08;;;;;;;18.33;16.50;;;2.90;99.90;;;;;;4867480;29;20619;-43
2023/12/19 06:52:33;;;;;;;18.23;16.73;;;2.90;99.90;;;;;;4868724;29;20199;-44
2023/12/19 06:55:00;;;;;;;17.47;15.77;;;3.00;99.90;;;;;;4868892;29;20238;-44
2023/12/19 06:57:26;;;;;;;16.70;15.05;;;3.10;99.90;;;;;;4869114;29;20221;-45
2023/12/19 06:59:52;;;;;;;16.20;14.80;;;3.20;99.90;;;;;;4867296;29;20189;-44
2023/12/19 07:02:17;;;;;;;16.07;14.70;;;3.20;19.10;;;;;;4865479;29;20190;-44
2023/12/19 07:04:43;;;;;;;15.80;14.43;;;3.30;1.00;;;;;;4865295;29;20246;-43
2023/12/19 07:07:08;;;;;;;15.90;14.50;;;3.30;1.00;;;;;;4863728;29;20489;-43
2023/12/19 07:09:36;;;;;;;16.60;15.30;;;3.40;1.00;;;;;;4867572;29;20299;-47
2023/12/19 07:12:02;;;;;;;15.93;14.73;;;3.40;1.00;;;;;;4866057;29;20208;-45
2023/12/19 07:14:28;;;;;;;17.40;15.80;;;3.50;1.00;;;;;;4867782;29;20602;-46
2023/12/19 07:16:53;;;;;;;16.83;15.50;;;3.50;99.90;;;;;;4867835;29;20172;-46
2023/12/19 07:19:19;;;;;;;15.77;14.27;;;3.60;99.90;;;;;;4867878;29;20455;-43
2023/12/19 07:21:45;;;;;;;16.10;14.60;;;3.60;17.20;;;;;;4866186;29;20243;-43
2023/12/19 07:24:11;;;;;;;16.07;14.57;;;3.70;1.00;;;;;;4866477;29;20860;-44
2023/12/19 07:26:36;;;;;;;14.40;13.40;;;3.70;99.90;;;;;;4866756;29;20195;-43
2023/12/19 07:29:02;;;;;;;14.23;13.03;;;3.70;99.90;;;;;;4867561;29;20188;-44
2023/12/19 07:31:31;;;;;;;16.87;15.30;;;3.80;1.00;;;;;;4868368;29;20279;-45
2023/12/19 07:34:04;;;;;;;16.75;15.27;;;3.80;99.90;;;;;;4868113;29;20468;-43
2023/12/19 07:36:31;;;;;;;16.40;15.10;;;3.80;99.90;;;;;;4868379;29;20200;-47
2023/12/19 07:38:56;;;;;;;16.02;14.68;;;3.80;1.00;;;;;;4869152;29;20286;-45
2023/12/19 07:41:23;;;;;;;16.27;14.80;;;3.90;1.00;;;;;;4868903;29;20739;-43
2023/12/19 07:43:49;;;;;;;16.15;14.85;;;4.00;99.90;;;;;;4868206;29;20498;-43
2023/12/19 07:46:15;;;;;;;17.20;15.80;;;4.00;91.50;;;;;;4869080;29;20192;-43
2023/12/19 07:48:41;;;;;;;16.60;15.20;;;4.10;1.00;;;;;;4868955;29;20428;-43
2023/12/19 07:51:08;;;;;;;14.52;13.27;;;4.10;99.90;;;;;;4868021;29;20551;-45
2023/12/19 07:53:34;;;;;;;16.20;14.95;;;4.10;99.90;;;;;;4866674;29;20298;-43
2023/12/19 07:56:04;;;;;;;16.73;15.10;;;4.20;99.90;;;;;;4868130;29;20551;-44
2023/12/19 07:58:30;;;;;;;15.60;14.40;;;4.20;1.00;;;;;;4867600;29;20763;-45
2023/12/19 08:00:56;;;;;;;15.80;14.50;;;4.20;1.00;;;;;;4871810;29;20334;-44
2023/12/19 08:03:27;;;;;;;16.23;15.00;;;4.20;1.00;;;;;;4865460;29;20439;-44
2023/12/19 08:05:55;;;;;;;16.38;14.93;;;4.20;1.00;;;;;;4865749;29;20184;-43
2023/12/19 08:08:20;;;;;;;15.98;14.77;;;4.20;1.00;;;;;;4865747;29;21036;-43
2023/12/19 08:10:46;;;;;;;16.93;15.53;;;4.20;1.00;;;;;;4866120;29;20279;-51
2023/12/19 08:13:12;;;;;;;15.70;14.10;;;4.30;1.00;;;;;;4866655;29;20428;-51
2023/12/19 08:15:40;;;;;;;16.03;14.60;;;4.40;99.90;;;;;;4862650;29;20477;-53
2023/12/19 08:18:07;;;;;;;15.50;14.10;;;4.50;99.90;;;;;;4867241;29;20455;-51
2023/12/19 08:20:33;;;;;;;15.70;14.40;;;4.50;99.90;;;;;;4868239;29;20646;-52
2023/12/19 08:22:59;;;;;;;16.35;15.13;;;4.70;99.90;;;;;;4867629;29;20526;-54
2023/12/19 08:25:25;;;;;;;17.17;15.73;;;4.90;99.90;;;;;;4867372;29;20263;-50
2023/12/19 08:27:50;;;;;;;15.80;14.40;;;5.20;99.90;;;;;;4867639;29;20503;-50
2023/12/19 08:30:16;;;;;;;17.10;15.70;;;5.40;99.90;;;;;;4867578;29;20198;-50
2023/12/19 08:32:41;;;;;;;15.90;14.60;;;5.60;99.90;;;;;;4867183;29;20191;-43
2023/12/19 08:35:07;;;;;;;16.67;15.27;;;5.90;99.90;;;;;;4867295;29;20215;-47
2023/12/19 08:37:33;;;;;;;16.50;15.27;;;6.10;99.90;;;;;;4867287;29;20198;-43
2023/12/19 08:40:03;;;;;;;15.60;14.40;;;6.10;99.90;;;;;;4866473;29;20519;-43
2023/12/19 08:42:29;;;;;;;16.17;14.88;;;5.90;99.90;;;;;;4867868;29;20207;-46
2023/12/19 08:44:55;;;;;;;15.05;13.80;;;5.80;99.90;;;;;;4866119;29;20978;-43
2023/12/19 08:47:24;;;;;;;16.35;15.02;;;5.80;99.90;;;;;;4867105;29;20267;-43
2023/12/19 08:49:53;;;;;;;15.82;14.60;;;5.80;99.90;;;;;;4866878;29;20227;-42
2023/12/19 08:52:22;;;;;;;16.85;15.43;;;5.80;99.90;;;;;;4867288;29;20681;-43
2023/12/19 08:54:48;;;;;;;15.77;14.50;;;5.90;99.90;;;;;;4867107;29;20331;-44
2023/12/19 08:57:15;;;;;;;16.87;15.10;;;6.00;99.90;;;;;;4866887;29;20707;-45
2023/12/19 08:59:40;;;;;;;17.83;16.40;;;6.00;99.90;;;;;;4866891;29;20275;-43
2023/12/19 09:02:06;;;;;;;16.47;15.07;;;6.10;99.90;;;;;;4866889;29;20192;-44
2023/12/19 09:04:32;;;;;;;16.50;15.20;;;6.20;99.90;;;;;;4866478;29;20187;-45
2023/12/19 09:06:58;;;;;;;17.40;16.00;;;6.50;99.90;;;;;;4866972;29;20427;-45
2023/12/19 09:09:24;;;;;;;16.13;14.73;;;6.90;99.80;;;;;;4866573;29;20432;-44
2023/12/19 09:11:50;;;;;;;16.20;15.00;;;7.30;99.30;;;;;;4865220;29;20501;-43
2023/12/19 09:14:17;;;;;;;18.00;16.60;;;7.50;98.20;;;;;;4865806;29;20243;-46
2023/12/19 09:16:43;;;;;;;16.37;15.00;;;7.50;97.50;;;;;;4866497;29;20421;-53
2023/12/19 09:19:09;;;;;;;15.77;14.57;;;7.70;97.10;;;;;;4866652;29;20421;-49
2023/12/19 09:21:34;;;;;;;17.10;15.70;;;7.70;96.60;;;;;;4866594;29;20421;-51
2023/12/19 09:24:00;;;;;;;16.03;14.83;;;7.80;96.50;;;;;;4867109;29;20339;-55
2023/12/19 09:26:27;;;;;;;17.03;15.73;;;7.80;96.50;;;;;;4867188;29;20221;-51
2023/12/19 09:28:55;;;;;;;16.63;15.10;;;7.80;96.10;;;;;;4866576;29;20183;-53
2023/12/19 09:31:21;;;;;;;15.23;14.03;;;7.60;96.00;;;;;;4866459;29;20863;-55
2023/12/19 09:33:46;;;;;;;17.30;15.73;;;7.60;96.20;;;;;;4867032;29;20463;-55
2023/12/19 09:36:21;;;;;;;17.27;15.97;;;7.60;95.80;;;;;;4866196;29;20188;-50
2023/12/19 09:38:47;;;;;;;16.47;15.00;;;7.30;95.90;;;;;;4866680;29;20172;-52
2023/12/19 09:41:13;;;;;;;17.97;16.50;;;7.30;96.90;;;;;;4865393;29;20436;-49
2023/12/19 09:43:39;;;;;;;16.30;14.90;;;7.50;97.20;;;;;;4865964;29;20306;-46
2023/12/19 09:46:05;;;;;;;17.37;15.97;;;7.60;96.90;;;;;;4866427;29;20431;-45
2023/12/19 09:48:33;;;;;;;15.97;14.73;;;7.70;97.20;;;;;;4866256;29;20198;-43
2023/12/19 09:51:04;;;;;;;16.30;15.10;;;7.80;95.90;;;;;;4866210;29;20434;-44
2023/12/19 09:53:34;;;;;;;17.10;15.63;;;7.80;95.80;;;;;;4865936;29;20428;-44
2023/12/19 09:56:01;;;;;;;17.10;15.50;;;8.10;95.60;;;;;;4865739;29;20437;-45
2023/12/19 09:58:28;;;;;;;17.00;15.70;;;8.20;94.70;;;;;;4864964;29;20443;-43
2023/12/19 10:01:00;;;;;;;16.80;15.40;;;8.30;94.20;;;;;;4866091;29;20423;-52
2023/12/19 10:03:29;;;;;;;15.93;14.77;;;8.60;94.00;;;;;;4866151;29;20416;-43
2023/12/19 10:05:57;;;;;;;16.77;15.57;;;8.60;93.40;;;;;;4865893;29;20408;-45
2023/12/19 10:08:23;;;;;;;16.90;15.57;;;8.90;93.20;;;;;;4865997;29;20999;-44
2023/12/19 10:10:51;;;;;;;16.37;14.80;;;9.20;92.80;;;;;;4865677;29;20518;-47
2023/12/19 10:13:31;;;;;;;16.57;15.27;;;9.50;92.00;;;;;;4866125;29;20363;-43
2023/12/19 10:16:01;;;;;;;15.80;14.60;;;9.50;90.70;;;;;;4864818;29;20959;-43
2023/12/19 10:18:27;;;;;;;17.40;16.10;;;9.50;90.80;;;;;;4865834;29;20448;-45
2023/12/19 10:21:08;;;;;;;17.10;15.80;;;9.60;91.10;;;;;;4870040;29;20629;-46
2023/12/19 10:23:34;;;;;;;17.30;16.10;;;9.70;90.70;;;;;;4865005;29;20239;-51
2023/12/19 10:26:00;;;;;;;17.17;15.87;;;9.90;90.70;;;;;;4867867;29;20427;-50
2023/12/19 10:28:26;;;;;;;16.60;15.20;;;9.90;90.30;;;;;;4869522;29;20424;-48
2023/12/19 10:31:12;;;;;;;16.90;15.50;;;9.70;89.80;;;;;;4869474;29;20187;-52
2023/12/19 10:33:49;;;;;;;16.87;15.47;;;9.50;90.90;;;;;;4869851;29;20419;-51
2023/12/19 10:36:28;;;;;;;16.97;15.50;;;9.50;90.90;;;;;;4869293;29;20472;-44
2023/12/19 10:38:55;;;;;;;18.00;16.60;;;9.40;91.30;;;;;;4869891;29;20420;-44
2023/12/19 10:41:23;;;;;;;17.73;15.97;;;9.20;91.00;;;;;;4869405;29;20945;-43
2023/12/19 10:43:50;;;;;;;16.23;15.00;;;9.00;91.50;;;;;;4869099;29;20483;-46
2023/12/19 10:46:18;;;;;;;17.37;15.77;;;8.70;91.50;;;;;;4867787;29;20862;-44
2023/12/19 10:48:47;;;;;;;17.00;15.70;;;8.60;92.20;;;;;;4869306;29;20510;-43
2023/12/19 10:51:21;;;;;;;17.00;15.60;;;8.60;92.70;;;;;;4869273;29;20468;-42
2023/12/19 10:53:49;;;;;;;18.13;16.53;;;8.60;93.00;;;;;;4868817;29;20622;-45
2023/12/19 10:56:24;;;;;;;17.07;15.67;;;8.50;92.60;;;;;;4868578;29;20499;-45
2023/12/19 10:58:57;;;;;;;16.00;14.80;;;8.50;93.20;;;;;;4869170;29;20435;-44
2023/12/19 11:01:25;;;;;;;16.93;15.70;;;8.50;93.10;;;;;;4868536;29;20466;-44
2023/12/19 11:03:57;;;;;;;17.37;15.80;;;8.60;93.80;;;;;;4869090;29;20424;-46
2023/12/19 11:06:31;;;;;;;16.40;15.20;;;8.60;93.80;;;;;;4868816;29;20785;-42
2023/12/19 11:09:04;;;;;;;16.77;15.37;;;8.60;93.50;;;;;;4869202;29;20445;-43
2023/12/19 11:11:37;;;;;;;16.37;15.07;;;8.60;93.00;;;;;;4868790;29;20523;-46
2023/12/19 11:14:05;;;;;;;17.50;16.20;;;8.40;92.90;;;;;;4858746;29;20523;-45
2023/12/19 11:16:46;;;;;;;17.33;15.83;;;8.40;93.60;;;;;;4865149;29;20784;-43
2023/12/19 11:19:17;;;;;;;16.30;15.00;;;8.40;93.90;;;;;;4869000;29;20420;-47
2023/12/19 11:21:59;;;;;;;17.20;15.60;;;8.40;93.90;;;;;;4868165;29;20433;-45
2023/12/19 11:24:40;;;;;;;17.50;16.17;;;8.40;93.20;;;;;;4867792;29;20491;-43
2023/12/19 11:27:21;;;;;;;17.30;15.90;;;8.40;93.60;;;;;;4867465;29;20456;-45
2023/12/19 11:29:53;;;;;;;17.63;16.23;;;8.50;94.10;;;;;;4868371;29;20621;-47
2023/12/19 11:32:28;;;;;;;17.80;16.27;;;8.60;93.60;;;;;;4868084;29;20554;-46
2023/12/19 11:35:14;;;;;;;17.30;15.90;;;8.80;93.40;;;;;;4868611;29;20800;-45
2023/12/19 11:37:44;;;;;;;17.53;16.20;;;8.80;93.00;;;;;;4866867;29;20436;-44
2023/12/19 11:40:35;;;;;;;16.37;14.97;;;8.90;92.90;;;;;;4868535;29;20424;-44
2023/12/19 11:43:01;;;;;;;15.70;14.40;;;8.90;93.40;;;;;;4866636;29;20508;-42
2023/12/19 11:45:26;;;;;;;16.63;15.33;;;9.00;93.30;;;;;;4868106;29;20524;-45
2023/12/19 11:47:53;;;;;;;16.87;15.43;;;9.00;93.50;;;;;;4867940;29;20196;-46
2023/12/19 11:50:44;;;;;;;16.80;15.40;;;9.00;92.80;;;;;;4868514;29;20251;-45
2023/12/19 11:53:10;;;;;;;16.40;15.07;;;9.10;93.60;;;;;;4866357;29;20496;-48
2023/12/19 11:55:35;;;;;;;16.63;15.50;;;9.10;93.70;;;;;;4868081;29;21095;-44
2023/12/19 11:58:08;;;;;;;17.20;15.77;;;9.10;93.60;;;;;;4867978;29;20267;-45
2023/12/19 12:00:33;;;;;;;17.20;15.80;;;9.00;93.00;;;;;;4880538;29;20192;-48
2023/12/19 12:03:09;;;;;;;17.43;16.03;;;9.00;92.10;;;;;;4860087;29;20437;-44
2023/12/19 12:05:36;;;;;;;16.80;15.50;;;8.90;92.00;;;;;;4868486;29;20671;-44
2023/12/19 12:08:03;;;;;;;15.17;14.00;;;8.90;92.00;;;;;;4867955;29;20436;-47
2023/12/19 12:10:28;;;;;;;15.60;14.40;;;8.90;92.70;;;;;;4867648;29;20432;-46
2023/12/19 12:13:01;;;;;;;15.30;14.00;;;8.80;91.50;;;;;;4867927;29;20508;-56
2023/12/19 12:15:27;;;;;;;17.40;15.90;;;8.80;91.30;;;;;;4867653;29;20218;-50
2023/12/19 12:18:10;;;;;;;16.10;14.80;;;8.80;90.90;;;;;;4867532;29;20423;-51
2023/12/19 12:20:35;;;;;;;16.53;15.10;;;8.90;90.80;;;;;;4867665;29;20191;-55
2023/12/19 12:23:01;;;;;;;15.70;14.43;;;8.90;91.00;;;;;;4867188;29;20448;-45
2023/12/19 12:25:27;;;;;;;15.10;13.90;;;8.80;91.30;;;;;;4867574;29;20203;-48
2023/12/19 12:27:56;;;;;;;14.93;13.63;;;8.90;91.70;;;;;;4881639;29;20519;-45
2023/12/19 12:30:27;;;;;;;15.23;14.13;;;8.70;92.30;;;;;;4867598;29;20436;-45
2023/12/19 12:32:53;;;;;;;14.57;13.37;;;8.80;92.90;;;;;;4867343;29;21226;-45
2023/12/19 12:35:24;;;;;;;15.13;13.97;;;8.80;93.30;;;;;;4866034;29;20531;-44
2023/12/19 12:37:55;;;;;;;15.77;14.50;;;8.90;93.80;;;;;;4865790;29;20482;-44